Time;durP1;ratioP1;P1;durP2;ratioP2;P2;SDS_P1;SDS_P2;PMS_P1;PMS_P2;Temp;Humidity;BMP_temperature;BMP_pressure;BME280_temperature;BME280_humidity;BME280_pressure;Samples;Min_cycle;Max_cycle;Signal;HPM_P1;HPM_P2
2023/12/16 00:02:09;;;;;;;6.28;3.08;;;;;;;;;;5103493;28;20055;-68
2023/12/16 00:04:35;;;;;;;6.38;3.42;;;;;;;;;;5104802;28;20524;-66
2023/12/16 00:07:01;;;;;;;8.90;2.97;;;;;;;;;;5103116;28;20558;-67
2023/12/16 00:09:28;;;;;;;5.57;2.63;;;;;;;;;;5117115;27;20086;-66
2023/12/16 00:11:54;;;;;;;5.82;2.47;;;;;;;;;;5124977;27;20132;-65
2023/12/16 00:14:20;;;;;;;5.47;2.72;;;;;;;;;;5105938;27;20521;-66
2023/12/16 00:16:46;;;;;;;13.13;2.92;;;;;;;;;;5123926;27;20065;-66
2023/12/16 00:19:12;;;;;;;5.28;2.35;;;;;;;;;;5123990;27;20045;-66
2023/12/16 00:21:38;;;;;;;5.20;2.13;;;;;;;;;;5123855;27;20226;-66
2023/12/16 00:24:06;;;;;;;5.65;2.22;;;;;;;;;;5105436;27;20200;-66
2023/12/16 00:26:33;;;;;;;6.30;2.22;;;;;;;;;;5123510;27;20054;-66
2023/12/16 00:28:59;;;;;;;4.47;2.22;;;;;;;;;;5123776;27;20080;-66
2023/12/16 00:31:25;;;;;;;4.07;2.60;;;;;;;;;;5123668;27;20493;-66
2023/12/16 00:33:51;;;;;;;4.13;2.35;;;;;;;;;;5124382;27;20558;-66
2023/12/16 00:36:17;;;;;;;7.43;2.72;;;;;;;;;;5122942;27;20051;-67
2023/12/16 00:38:43;;;;;;;5.95;2.70;;;;;;;;;;5105098;27;20043;-65
2023/12/16 00:41:10;;;;;;;7.53;2.90;;;;;;;;;;5123432;27;20332;-65
2023/12/16 00:43:36;;;;;;;12.13;2.55;;;;;;;;;;5124266;27;20126;-66
2023/12/16 00:46:02;;;;;;;7.70;2.65;;;;;;;;;;5123621;27;20764;-66
2023/12/16 00:48:28;;;;;;;9.93;3.40;;;;;;;;;;5123648;27;20095;-66
2023/12/16 00:50:54;;;;;;;8.30;2.70;;;;;;;;;;5103699;27;20066;-66
2023/12/16 00:53:21;;;;;;;11.15;3.05;;;;;;;;;;5124042;27;20062;-66
2023/12/16 00:55:47;;;;;;;9.82;2.72;;;;;;;;;;5121572;27;20465;-65
2023/12/16 00:58:13;;;;;;;7.00;2.70;;;;;;;;;;5122792;27;20039;-66
2023/12/16 01:00:42;;;;;;;10.68;3.17;;;;;;;;;;5120089;27;20065;-66
2023/12/16 01:03:08;;;;;;;5.28;2.58;;;;;;;;;;5103011;27;20070;-66
2023/12/16 01:05:34;;;;;;;4.50;2.65;;;;;;;;;;5103198;27;20074;-66
2023/12/16 01:08:01;;;;;;;4.50;1.90;;;;;;;;;;5121751;27;20046;-65
2023/12/16 01:10:27;;;;;;;5.78;2.30;;;;;;;;;;5121949;27;20127;-66
2023/12/16 01:12:53;;;;;;;8.45;2.17;;;;;;;;;;5123289;27;20096;-65
2023/12/16 01:15:19;;;;;;;11.35;3.85;;;;;;;;;;5103757;27;20042;-65
2023/12/16 01:17:45;;;;;;;6.28;3.47;;;;;;;;;;5122753;27;20039;-67
2023/12/16 01:20:11;;;;;;;5.70;2.30;;;;;;;;;;5102413;27;20065;-66
2023/12/16 01:22:38;;;;;;;5.70;2.45;;;;;;;;;;5123401;27;20051;-65
2023/12/16 01:25:05;;;;;;;7.88;2.15;;;;;;;;;;5123722;27;20042;-65
2023/12/16 01:27:31;;;;;;;6.50;2.58;;;;;;;;;;5123195;27;20047;-66
2023/12/16 01:29:57;;;;;;;6.80;2.10;;;;;;;;;;5123018;27;20458;-66
2023/12/16 01:32:23;;;;;;;5.43;2.70;;;;;;;;;;5123489;27;20043;-66
2023/12/16 01:34:49;;;;;;;7.50;2.50;;;;;;;;;;5122360;27;20046;-66
2023/12/16 01:37:15;;;;;;;5.15;2.10;;;;;;;;;;5120211;27;20047;-67
2023/12/16 01:39:41;;;;;;;8.32;2.38;;;;;;;;;;5121229;27;20054;-66
2023/12/16 01:42:08;;;;;;;6.53;2.30;;;;;;;;;;5123047;28;20031;-67
2023/12/16 01:44:34;;;;;;;10.82;2.75;;;;;;;;;;5123525;27;20054;-66
2023/12/16 01:47:00;;;;;;;7.68;3.35;;;;;;;;;;5122703;28;20128;-67
2023/12/16 01:49:26;;;;;;;3.72;2.22;;;;;;;;;;5122301;28;20122;-67
2023/12/16 01:51:52;;;;;;;6.10;1.98;;;;;;;;;;5122465;27;20142;-66
2023/12/16 01:54:19;;;;;;;9.80;2.78;;;;;;;;;;5122668;28;20054;-67
2023/12/16 01:56:48;;;;;;;6.22;1.75;;;;;;;;;;5103507;28;20031;-66
2023/12/16 01:59:14;;;;;;;6.28;2.38;;;;;;;;;;5123440;27;20051;-67
2023/12/16 02:01:41;;;;;;;7.22;2.05;;;;;;;;;;5123173;27;20042;-66
2023/12/16 02:04:07;;;;;;;5.85;2.20;;;;;;;;;;5122268;28;20518;-67
2023/12/16 02:06:33;;;;;;;6.47;1.85;;;;;;;;;;5122857;28;20062;-66
2023/12/16 02:08:59;;;;;;;10.15;2.40;;;;;;;;;;5122976;28;20059;-66
2023/12/16 02:11:25;;;;;;;6.18;2.47;;;;;;;;;;5123353;28;20053;-67
2023/12/16 02:13:51;;;;;;;10.00;2.33;;;;;;;;;;5123961;27;20043;-66
2023/12/16 02:16:17;;;;;;;6.47;2.40;;;;;;;;;;5123767;28;20047;-65
2023/12/16 02:18:44;;;;;;;7.28;2.50;;;;;;;;;;5124043;28;20501;-66
2023/12/16 02:21:10;;;;;;;13.43;3.00;;;;;;;;;;5121090;28;20043;-66
2023/12/16 02:23:37;;;;;;;8.43;2.28;;;;;;;;;;5123111;28;20055;-67
2023/12/16 02:26:04;;;;;;;12.00;2.47;;;;;;;;;;5122136;28;20050;-67
2023/12/16 02:28:30;;;;;;;4.50;2.40;;;;;;;;;;5122761;28;20122;-66
2023/12/16 02:30:56;;;;;;;5.63;2.22;;;;;;;;;;5122430;28;20179;-66
2023/12/16 02:33:24;;;;;;;5.20;2.60;;;;;;;;;;5123093;28;20990;-67
2023/12/16 02:35:50;;;;;;;5.82;2.60;;;;;;;;;;5120748;28;20039;-67
2023/12/16 02:38:19;;;;;;;7.75;2.75;;;;;;;;;;5120505;28;20448;-66
2023/12/16 02:40:47;;;;;;;7.93;2.83;;;;;;;;;;5121161;28;20181;-66
2023/12/16 02:43:13;;;;;;;5.20;2.28;;;;;;;;;;5121111;28;20126;-67
2023/12/16 02:45:40;;;;;;;7.68;2.30;;;;;;;;;;5103787;28;20039;-66
2023/12/16 02:48:06;;;;;;;7.53;2.88;;;;;;;;;;5122071;28;20032;-65
2023/12/16 02:50:32;;;;;;;7.78;2.40;;;;;;;;;;5102686;27;20394;-67
2023/12/16 02:52:59;;;;;;;9.10;3.13;;;;;;;;;;5125528;27;20095;-66
2023/12/16 02:55:26;;;;;;;7.32;2.70;;;;;;;;;;5125325;27;20165;-67
2023/12/16 02:57:52;;;;;;;4.75;2.22;;;;;;;;;;5125375;27;20046;-66
2023/12/16 03:00:18;;;;;;;6.38;2.72;;;;;;;;;;5125778;27;20051;-66
2023/12/16 03:02:44;;;;;;;6.88;2.55;;;;;;;;;;5126517;27;20130;-66
2023/12/16 03:05:10;;;;;;;8.05;2.50;;;;;;;;;;5124624;27;20041;-66
2023/12/16 03:07:38;;;;;;;8.07;2.35;;;;;;;;;;5125386;27;20039;-66
2023/12/16 03:10:04;;;;;;;7.75;2.58;;;;;;;;;;5125066;27;20493;-66
2023/12/16 03:12:30;;;;;;;7.57;2.13;;;;;;;;;;5125002;27;20506;-66
2023/12/16 03:14:57;;;;;;;8.23;3.40;;;;;;;;;;5124105;27;20161;-66
2023/12/16 03:17:23;;;;;;;10.10;3.13;;;;;;;;;;5125423;27;20523;-66
2023/12/16 03:19:50;;;;;;;6.25;2.88;;;;;;;;;;5104792;27;20050;-66
2023/12/16 03:22:16;;;;;;;12.25;2.65;;;;;;;;;;5124939;27;20121;-66
2023/12/16 03:24:42;;;;;;;11.68;3.03;;;;;;;;;;5125010;27;20439;-66
2023/12/16 03:27:08;;;;;;;6.78;2.55;;;;;;;;;;5125322;27;20111;-66
2023/12/16 03:29:34;;;;;;;7.13;3.75;;;;;;;;;;5124710;27;20031;-66
2023/12/16 03:32:00;;;;;;;9.75;3.17;;;;;;;;;;5125675;27;20037;-66
2023/12/16 03:34:26;;;;;;;7.15;3.25;;;;;;;;;;5124134;27;20751;-66
2023/12/16 03:36:53;;;;;;;10.68;5.25;;;;;;;;;;5124174;27;20047;-66
2023/12/16 03:39:20;;;;;;;9.50;3.10;;;;;;;;;;5124626;27;20119;-65
2023/12/16 03:41:46;;;;;;;7.38;3.40;;;;;;;;;;5125433;27;20079;-66
2023/12/16 03:44:12;;;;;;;10.80;2.70;;;;;;;;;;5124873;27;20050;-66
2023/12/16 03:46:38;;;;;;;9.00;2.92;;;;;;;;;;5105965;27;20042;-66
2023/12/16 03:49:04;;;;;;;8.23;2.95;;;;;;;;;;5105714;27;20395;-66
2023/12/16 03:51:30;;;;;;;7.90;3.40;;;;;;;;;;5123790;27;20096;-66
2023/12/16 03:53:56;;;;;;;7.10;2.53;;;;;;;;;;5125165;27;20039;-66
2023/12/16 03:56:22;;;;;;;10.27;3.28;;;;;;;;;;5124706;27;20054;-66
2023/12/16 03:58:49;;;;;;;7.85;2.53;;;;;;;;;;5125833;27;20079;-65
2023/12/16 04:01:15;;;;;;;12.35;3.10;;;;;;;;;;5125088;27;20043;-66
2023/12/16 04:03:41;;;;;;;9.40;2.78;;;;;;;;;;5124132;27;20221;-66
2023/12/16 04:06:11;;;;;;;9.68;3.42;;;;;;;;;;5123341;27;20035;-66
2023/12/16 04:08:37;;;;;;;9.10;3.25;;;;;;;;;;5106185;27;20292;-65
2023/12/16 04:11:03;;;;;;;9.27;3.00;;;;;;;;;;5123898;27;20039;-65
2023/12/16 04:13:29;;;;;;;12.68;3.90;;;;;;;;;;5125086;27;20054;-66
2023/12/16 04:15:55;;;;;;;5.07;2.28;;;;;;;;;;5105204;27;20043;-66
2023/12/16 04:18:22;;;;;;;8.07;2.72;;;;;;;;;;5124526;27;20039;-67
2023/12/16 04:20:48;;;;;;;9.82;3.03;;;;;;;;;;5086732;27;20137;-66
2023/12/16 04:23:14;;;;;;;10.02;3.47;;;;;;;;;;5124381;27;20545;-66
2023/12/16 04:25:40;;;;;;;9.57;3.50;;;;;;;;;;5124199;27;20099;-66
2023/12/16 04:28:07;;;;;;;8.23;3.65;;;;;;;;;;5124226;27;20046;-65
2023/12/16 04:30:33;;;;;;;8.73;3.20;;;;;;;;;;5124595;27;20039;-65
2023/12/16 04:33:00;;;;;;;6.60;2.25;;;;;;;;;;5124510;27;20058;-65
2023/12/16 04:35:26;;;;;;;10.43;3.15;;;;;;;;;;5122694;27;20157;-66
2023/12/16 04:37:52;;;;;;;7.63;2.70;;;;;;;;;;5124114;27;20080;-66
2023/12/16 04:40:18;;;;;;;9.82;4.53;;;;;;;;;;5123444;27;20154;-66
2023/12/16 04:42:44;;;;;;;9.07;3.30;;;;;;;;;;5124256;27;20118;-66
2023/12/16 04:45:10;;;;;;;10.90;4.20;;;;;;;;;;5123606;27;20050;-66
2023/12/16 04:47:37;;;;;;;9.40;2.78;;;;;;;;;;5124128;27;20050;-66
2023/12/16 04:50:03;;;;;;;11.05;3.13;;;;;;;;;;5103639;27;20374;-66
2023/12/16 04:52:30;;;;;;;6.15;2.90;;;;;;;;;;5123295;27;20110;-66
2023/12/16 04:54:56;;;;;;;13.82;3.10;;;;;;;;;;5123900;27;20046;-66
2023/12/16 04:57:22;;;;;;;7.85;2.67;;;;;;;;;;5123692;27;20051;-66
2023/12/16 04:59:48;;;;;;;6.22;3.40;;;;;;;;;;5104955;27;20410;-66
2023/12/16 05:02:14;;;;;;;10.18;3.97;;;;;;;;;;5123722;27;20038;-65
2023/12/16 05:04:41;;;;;;;6.88;2.88;;;;;;;;;;5123392;27;20035;-65
2023/12/16 05:07:07;;;;;;;8.68;3.03;;;;;;;;;;5103459;27;20264;-66
2023/12/16 05:09:34;;;;;;;8.38;3.88;;;;;;;;;;5122856;27;21508;-64
2023/12/16 05:12:00;;;;;;;8.43;3.42;;;;;;;;;;5123873;27;20107;-66
2023/12/16 05:14:26;;;;;;;8.93;4.22;;;;;;;;;;5123372;27;20176;-66
2023/12/16 05:16:53;;;;;;;12.10;3.97;;;;;;;;;;5123607;27;20106;-66
2023/12/16 05:19:19;;;;;;;13.70;3.88;;;;;;;;;;5085203;27;20497;-66
2023/12/16 05:21:46;;;;;;;9.50;3.28;;;;;;;;;;5101325;27;20171;-66
2023/12/16 05:24:12;;;;;;;12.23;3.90;;;;;;;;;;5121135;27;20050;-66
2023/12/16 05:26:38;;;;;;;10.02;4.15;;;;;;;;;;5122511;27;20031;-66
2023/12/16 05:29:04;;;;;;;9.57;4.30;;;;;;;;;;5122495;27;20077;-66
2023/12/16 05:31:30;;;;;;;10.45;4.30;;;;;;;;;;5123620;27;20047;-66
2023/12/16 05:33:57;;;;;;;11.00;4.07;;;;;;;;;;5103935;27;20497;-66
2023/12/16 05:36:23;;;;;;;9.55;4.18;;;;;;;;;;5122440;27;20061;-66
2023/12/16 05:38:49;;;;;;;10.35;3.83;;;;;;;;;;5123191;27;20093;-66
2023/12/16 05:41:15;;;;;;;10.75;4.32;;;;;;;;;;5103133;27;20498;-65
2023/12/16 05:43:42;;;;;;;10.90;4.30;;;;;;;;;;5122739;28;20050;-66
2023/12/16 05:46:08;;;;;;;12.32;5.07;;;;;;;;;;5103120;28;20075;-67
2023/12/16 05:48:35;;;;;;;13.57;4.80;;;;;;;;;;5123427;27;20126;-66
2023/12/16 05:51:02;;;;;;;13.20;5.32;;;;;;;;;;5120783;27;20045;-66
2023/12/16 05:53:28;;;;;;;10.60;4.18;;;;;;;;;;5123172;28;20046;-66
2023/12/16 05:55:54;;;;;;;10.40;4.57;;;;;;;;;;5121770;28;20532;-65
2023/12/16 05:58:20;;;;;;;12.15;5.07;;;;;;;;;;5122878;28;20047;-66
2023/12/16 06:00:46;;;;;;;18.20;6.18;;;;;;;;;;5122765;28;20051;-65
2023/12/16 06:03:12;;;;;;;15.63;4.95;;;;;;;;;;5123197;28;20090;-66
2023/12/16 06:05:39;;;;;;;14.65;5.68;;;;;;;;;;5121484;27;20037;-66
2023/12/16 06:08:05;;;;;;;12.52;5.50;;;;;;;;;;5122629;28;20037;-66
2023/12/16 06:10:31;;;;;;;13.18;4.95;;;;;;;;;;5120735;28;20517;-66
2023/12/16 06:12:57;;;;;;;8.68;5.47;;;;;;;;;;5120815;28;20043;-65
2023/12/16 06:15:25;;;;;;;14.95;5.18;;;;;;;;;;5103393;28;20043;-65
2023/12/16 06:17:51;;;;;;;14.63;5.40;;;;;;;;;;5123296;27;20228;-66
2023/12/16 06:20:17;;;;;;;15.57;4.88;;;;;;;;;;5120558;28;20518;-66
2023/12/16 06:22:43;;;;;;;19.63;7.55;;;;;;;;;;5121433;28;20035;-66
2023/12/16 06:25:09;;;;;;;12.80;4.93;;;;;;;;;;5120082;27;20046;-66
2023/12/16 06:27:35;;;;;;;20.80;6.55;;;;;;;;;;5121158;27;20039;-66
2023/12/16 06:30:02;;;;;;;14.70;5.20;;;;;;;;;;5121704;27;20069;-66
2023/12/16 06:32:28;;;;;;;13.30;4.55;;;;;;;;;;5123584;27;20051;-66
2023/12/16 06:34:54;;;;;;;12.93;4.10;;;;;;;;;;5122401;27;20043;-67
2023/12/16 06:37:21;;;;;;;15.13;5.10;;;;;;;;;;5121124;27;20594;-65
2023/12/16 06:39:47;;;;;;;11.60;5.07;;;;;;;;;;5123760;27;20043;-65
2023/12/16 06:42:13;;;;;;;15.40;6.60;;;;;;;;;;5122993;27;20046;-65
2023/12/16 06:44:39;;;;;;;12.52;5.15;;;;;;;;;;5104181;27;20043;-65
2023/12/16 06:47:05;;;;;;;31.20;6.32;;;;;;;;;;5123782;27;20035;-66
2023/12/16 06:49:31;;;;;;;14.95;5.43;;;;;;;;;;5119043;27;20822;-66
2023/12/16 06:51:58;;;;;;;12.65;5.32;;;;;;;;;;5122402;27;20967;-67
2023/12/16 06:54:24;;;;;;;18.00;6.10;;;;;;;;;;5122335;27;20131;-67
2023/12/16 06:56:50;;;;;;;15.02;6.18;;;;;;;;;;5123377;27;20684;-66
2023/12/16 06:59:17;;;;;;;15.00;5.25;;;;;;;;;;5123117;27;20062;-67
2023/12/16 07:01:43;;;;;;;9.35;5.13;;;;;;;;;;5124053;27;20050;-66
2023/12/16 07:04:09;;;;;;;12.25;5.13;;;;;;;;;;5123128;27;20067;-66
2023/12/16 07:06:36;;;;;;;19.90;5.63;;;;;;;;;;5121267;27;20997;-67
2023/12/16 07:09:03;;;;;;;16.40;6.28;;;;;;;;;;5123581;27;20047;-66
2023/12/16 07:11:29;;;;;;;11.02;5.32;;;;;;;;;;5122398;27;20035;-66
2023/12/16 07:13:55;;;;;;;28.60;6.32;;;;;;;;;;5103828;27;20436;-66
2023/12/16 07:16:21;;;;;;;14.68;6.13;;;;;;;;;;5122406;27;20103;-66
2023/12/16 07:18:47;;;;;;;12.07;5.43;;;;;;;;;;5103285;27;20039;-66
2023/12/16 07:21:13;;;;;;;16.45;5.50;;;;;;;;;;5121122;27;20043;-66
2023/12/16 07:23:40;;;;;;;10.07;5.28;;;;;;;;;;5103987;27;20884;-66
2023/12/16 07:26:06;;;;;;;21.75;6.88;;;;;;;;;;5123046;27;20509;-67
2023/12/16 07:28:33;;;;;;;12.48;5.88;;;;;;;;;;5103892;27;20050;-67
2023/12/16 07:31:00;;;;;;;14.23;6.03;;;;;;;;;;5122484;27;20486;-67
2023/12/16 07:33:27;;;;;;;10.75;6.03;;;;;;;;;;5123613;27;20058;-67
2023/12/16 07:35:53;;;;;;;14.77;5.97;;;;;;;;;;5121866;27;20050;-65
2023/12/16 07:38:19;;;;;;;15.52;6.32;;;;;;;;;;5122412;27;20569;-65
2023/12/16 07:40:45;;;;;;;16.85;6.45;;;;;;;;;;5122149;27;20551;-66
2023/12/16 07:43:11;;;;;;;11.65;4.75;;;;;;;;;;5104181;27;20050;-66
2023/12/16 07:45:37;;;;;;;15.07;5.97;;;;;;;;;;5086434;27;20552;-65
2023/12/16 07:48:06;;;;;;;17.38;6.25;;;;;;;;;;5103218;27;20043;-65
2023/12/16 07:50:32;;;;;;;17.60;7.03;;;;;;;;;;5121252;27;20580;-65
2023/12/16 07:52:58;;;;;;;19.77;6.60;;;;;;;;;;5122071;27;20073;-65
2023/12/16 07:55:27;;;;;;;24.55;7.85;;;;;;;;;;5121223;27;20051;-65
2023/12/16 07:57:54;;;;;;;17.70;6.78;;;;;;;;;;5120293;27;20554;-66
2023/12/16 08:00:20;;;;;;;15.23;5.78;;;;;;;;;;5123052;27;20391;-66
2023/12/16 08:02:46;;;;;;;15.27;6.53;;;;;;;;;;5122164;27;20045;-66
2023/12/16 08:05:12;;;;;;;18.45;6.55;;;;;;;;;;5102892;27;20050;-66
2023/12/16 08:07:38;;;;;;;21.98;7.85;;;;;;;;;;5121620;27;20503;-66
2023/12/16 08:10:05;;;;;;;19.52;7.18;;;;;;;;;;5122389;27;20510;-65
2023/12/16 08:12:31;;;;;;;15.55;6.30;;;;;;;;;;5122254;27;20071;-66
2023/12/16 08:14:57;;;;;;;17.40;6.65;;;;;;;;;;5122112;27;20054;-65
2023/12/16 08:17:23;;;;;;;19.95;6.97;;;;;;;;;;5121972;27;20359;-67
2023/12/16 08:19:51;;;;;;;22.33;6.13;;;;;;;;;;5121436;27;20240;-66
2023/12/16 08:22:17;;;;;;;21.20;5.85;;;;;;;;;;5120369;27;20131;-66
2023/12/16 08:24:43;;;;;;;17.67;5.13;;;;;;;;;;5121822;27;20092;-66
2023/12/16 08:27:09;;;;;;;15.13;6.85;;;;;;;;;;5120926;27;20471;-66
2023/12/16 08:29:36;;;;;;;13.93;5.93;;;;;;;;;;5120418;27;20071;-67
2023/12/16 08:32:02;;;;;;;15.48;5.70;;;;;;;;;;5118939;27;20127;-66
2023/12/16 08:34:31;;;;;;;17.42;5.18;;;;;;;;;;5084828;27;20043;-66
2023/12/16 08:36:57;;;;;;;14.38;5.30;;;;;;;;;;5101070;27;20865;-66
2023/12/16 08:39:23;;;;;;;13.73;5.13;;;;;;;;;;5120071;27;20647;-65
2023/12/16 08:41:49;;;;;;;19.05;6.95;;;;;;;;;;5121326;27;20160;-66
2023/12/16 08:44:15;;;;;;;17.42;5.68;;;;;;;;;;5120155;27;21860;-65
2023/12/16 08:46:42;;;;;;;14.30;6.85;;;;;;;;;;5121016;27;20031;-66
2023/12/16 08:49:08;;;;;;;14.48;4.75;;;;;;;;;;5119776;27;20412;-65
2023/12/16 08:51:35;;;;;;;13.25;4.80;;;;;;;;;;5120811;27;20050;-66
2023/12/16 08:54:01;;;;;;;12.85;4.75;;;;;;;;;;5118646;27;20043;-66
2023/12/16 08:56:27;;;;;;;12.05;4.65;;;;;;;;;;5116845;27;20051;-65
2023/12/16 08:58:53;;;;;;;13.52;4.50;;;;;;;;;;5118437;27;20055;-66
2023/12/16 09:01:19;;;;;;;13.88;5.43;;;;;;;;;;5120617;27;20318;-66
2023/12/16 09:03:45;;;;;;;12.57;4.90;;;;;;;;;;5102516;27;20847;-66
2023/12/16 09:06:12;;;;;;;12.43;5.75;;;;;;;;;;5119340;27;20047;-66
2023/12/16 09:08:38;;;;;;;14.07;5.30;;;;;;;;;;5069181;27;20090;-66
2023/12/16 09:11:05;;;;;;;13.07;5.30;;;;;;;;;;5103495;27;20039;-66
2023/12/16 09:13:31;;;;;;;8.68;4.07;;;;;;;;;;5104249;27;20054;-66
2023/12/16 09:15:57;;;;;;;14.80;5.32;;;;;;;;;;5123105;27;20043;-67
2023/12/16 09:18:23;;;;;;;19.60;6.00;;;;;;;;;;5103596;27;20047;-67
2023/12/16 09:20:49;;;;;;;12.60;5.38;;;;;;;;;;5121822;27;20720;-66
2023/12/16 09:23:16;;;;;;;10.75;4.75;;;;;;;;;;5122227;27;20122;-66
2023/12/16 09:25:42;;;;;;;17.88;5.78;;;;;;;;;;5121914;27;20391;-67
2023/12/16 09:28:08;;;;;;;14.15;5.45;;;;;;;;;;5122511;27;20494;-66
2023/12/16 09:30:34;;;;;;;11.50;5.70;;;;;;;;;;5123287;27;20095;-66
2023/12/16 09:33:00;;;;;;;17.88;6.35;;;;;;;;;;5123360;27;20043;-66
2023/12/16 09:35:26;;;;;;;15.57;4.63;;;;;;;;;;5104080;27;20051;-66
2023/12/16 09:37:53;;;;;;;9.48;4.60;;;;;;;;;;5122649;27;20046;-66
2023/12/16 09:40:19;;;;;;;10.52;5.93;;;;;;;;;;5103101;27;20035;-66
2023/12/16 09:42:48;;;;;;;14.13;5.00;;;;;;;;;;5123362;27;20163;-66
2023/12/16 09:45:15;;;;;;;11.73;5.13;;;;;;;;;;5123165;27;20066;-67
2023/12/16 09:47:41;;;;;;;14.50;5.43;;;;;;;;;;5123227;28;21447;-66
2023/12/16 09:50:10;;;;;;;9.27;4.43;;;;;;;;;;5122961;28;20038;-67
2023/12/16 09:52:36;;;;;;;10.60;5.00;;;;;;;;;;5100757;28;20055;-67
2023/12/16 09:55:02;;;;;;;8.88;5.45;;;;;;;;;;5120507;28;20072;-66
2023/12/16 09:57:34;;;;;;;14.20;4.60;;;;;;;;;;5121117;28;20046;-66
2023/12/16 10:00:00;;;;;;;15.05;5.30;;;;;;;;;;5120747;27;20459;-66
2023/12/16 10:02:29;;;;;;;19.08;6.22;;;;;;;;;;5123107;27;20417;-66
2023/12/16 10:04:56;;;;;;;16.13;6.43;;;;;;;;;;5122767;27;20043;-66
2023/12/16 10:07:23;;;;;;;16.67;7.15;;;;;;;;;;5123335;27;20510;-67
2023/12/16 10:09:49;;;;;;;14.63;6.15;;;;;;;;;;5123792;27;20374;-66
2023/12/16 10:12:15;;;;;;;18.98;6.20;;;;;;;;;;5124792;27;20063;-65
2023/12/16 10:14:48;;;;;;;14.75;5.63;;;;;;;;;;5123073;27;20047;-66
2023/12/16 10:17:17;;;;;;;12.45;5.93;;;;;;;;;;5123749;27;20047;-66
2023/12/16 10:19:47;;;;;;;15.23;5.95;;;;;;;;;;5124026;27;20039;-66
2023/12/16 10:22:14;;;;;;;19.17;6.60;;;;;;;;;;5122867;27;20096;-65
2023/12/16 10:24:41;;;;;;;12.40;5.60;;;;;;;;;;5123784;27;20039;-66
2023/12/16 10:27:07;;;;;;;10.52;5.57;;;;;;;;;;5123957;27;20521;-66
2023/12/16 10:29:33;;;;;;;12.02;6.03;;;;;;;;;;5124743;27;20909;-66
2023/12/16 10:32:00;;;;;;;15.48;6.38;;;;;;;;;;5123984;27;20047;-66
2023/12/16 10:34:29;;;;;;;9.75;5.50;;;;;;;;;;5123171;27;20050;-66
2023/12/16 10:37:08;;;;;;;9.20;5.38;;;;;;;;;;5122030;27;20122;-66
2023/12/16 10:39:36;;;;;;;14.18;5.53;;;;;;;;;;5122132;27;20485;-66
2023/12/16 10:42:03;;;;;;;11.30;5.32;;;;;;;;;;5122998;27;20054;-65
2023/12/16 10:44:29;;;;;;;8.35;5.00;;;;;;;;;;5103511;27;20047;-65
2023/12/16 10:46:57;;;;;;;7.68;5.35;;;;;;;;;;5123776;27;20137;-65
2023/12/16 10:49:30;;;;;;;9.80;4.65;;;;;;;;;;5121334;27;20043;-65
2023/12/16 10:52:06;;;;;;;8.77;6.32;;;;;;;;;;5122499;27;20027;-66
2023/12/16 10:54:47;;;;;;;9.48;4.80;;;;;;;;;;5122292;27;20125;-65
2023/12/16 10:57:32;;;;;;;10.23;4.35;;;;;;;;;;5123802;27;20558;-66
2023/12/16 11:00:05;;;;;;;14.07;4.72;;;;;;;;;;5124450;27;20103;-65
2023/12/16 11:02:32;;;;;;;10.35;4.63;;;;;;;;;;5123223;27;20534;-65
2023/12/16 11:05:04;;;;;;;8.75;4.63;;;;;;;;;;5117872;27;20043;-66
2023/12/16 11:07:32;;;;;;;11.95;5.93;;;;;;;;;;5085628;27;20053;-66
2023/12/16 11:09:58;;;;;;;9.98;5.20;;;;;;;;;;5120623;27;20237;-67
2023/12/16 11:12:25;;;;;;;8.90;4.28;;;;;;;;;;5121053;27;20050;-66
2023/12/16 11:14:54;;;;;;;8.75;4.80;;;;;;;;;;5101985;28;20432;-66
2023/12/16 11:17:24;;;;;;;8.50;4.30;;;;;;;;;;5085769;27;20526;-66
2023/12/16 11:19:56;;;;;;;7.80;5.15;;;;;;;;;;5120903;28;20047;-64
2023/12/16 11:22:24;;;;;;;13.60;4.97;;;;;;;;;;5120775;28;20035;-66
2023/12/16 11:24:53;;;;;;;9.48;4.55;;;;;;;;;;5118264;28;20039;-65
2023/12/16 11:27:23;;;;;;;8.43;4.90;;;;;;;;;;5119321;28;20534;-66
2023/12/16 11:29:50;;;;;;;8.27;4.70;;;;;;;;;;5119042;28;20411;-65
2023/12/16 11:32:16;;;;;;;11.50;5.30;;;;;;;;;;5100635;28;20039;-66
2023/12/16 11:34:43;;;;;;;9.13;4.25;;;;;;;;;;5117966;28;20047;-66
2023/12/16 11:37:12;;;;;;;8.75;4.55;;;;;;;;;;5119937;28;20051;-65
2023/12/16 11:39:44;;;;;;;9.65;4.32;;;;;;;;;;5119834;28;20085;-65
2023/12/16 11:42:13;;;;;;;8.48;4.72;;;;;;;;;;5120617;28;20043;-66
2023/12/16 11:45:05;;;;;;;10.38;4.40;;;;;;;;;;5120116;28;20089;-66
2023/12/16 11:47:31;;;;;;;8.20;4.60;;;;;;;;;;5117161;28;20054;-64
2023/12/16 11:49:58;;;;;;;9.23;4.28;;;;;;;;;;5121766;28;20035;-67
2023/12/16 11:52:27;;;;;;;14.23;4.93;;;;;;;;;;5120779;28;20479;-66
2023/12/16 11:54:56;;;;;;;7.45;4.25;;;;;;;;;;5121216;27;20626;-66
2023/12/16 11:57:41;;;;;;;10.75;4.57;;;;;;;;;;5120788;28;20595;-66
2023/12/16 12:00:08;;;;;;;7.95;4.20;;;;;;;;;;5121803;28;20430;-67
2023/12/16 12:02:34;;;;;;;7.25;4.30;;;;;;;;;;5121030;28;20431;-66
2023/12/16 12:05:00;;;;;;;10.38;4.32;;;;;;;;;;5098438;28;20050;-66
2023/12/16 12:07:26;;;;;;;11.80;5.25;;;;;;;;;;5100324;27;20098;-66
2023/12/16 12:09:53;;;;;;;9.13;4.10;;;;;;;;;;5079851;27;1126797;-65
2023/12/16 12:12:19;;;;;;;8.80;4.53;;;;;;;;;;5122057;27;20039;-66
2023/12/16 12:14:51;;;;;;;11.27;4.20;;;;;;;;;;5122355;27;20085;-65
2023/12/16 12:17:18;;;;;;;12.55;4.88;;;;;;;;;;5119008;27;20092;-66
2023/12/16 12:19:45;;;;;;;6.60;3.95;;;;;;;;;;5121201;27;20054;-66
2023/12/16 12:22:11;;;;;;;6.65;4.00;;;;;;;;;;5120084;27;20130;-66
2023/12/16 12:24:43;;;;;;;8.15;4.25;;;;;;;;;;5118099;27;20050;-66
2023/12/16 12:27:09;;;;;;;8.75;4.03;;;;;;;;;;5121738;27;20043;-66
2023/12/16 12:29:54;;;;;;;10.07;5.68;;;;;;;;;;5121177;27;20043;-66
2023/12/16 12:32:20;;;;;;;15.75;5.05;;;;;;;;;;5121819;27;20097;-66
2023/12/16 12:34:56;;;;;;;8.75;4.57;;;;;;;;;;5068771;27;20374;-66
2023/12/16 12:37:23;;;;;;;7.88;4.50;;;;;;;;;;5101187;27;20043;-66
2023/12/16 12:39:50;;;;;;;9.45;5.22;;;;;;;;;;5119856;27;20043;-66
2023/12/16 12:42:16;;;;;;;6.63;3.80;;;;;;;;;;5121056;27;20460;-67
2023/12/16 12:44:58;;;;;;;5.93;5.13;;;;;;;;;;5120482;27;20383;-66
2023/12/16 12:47:28;;;;;;;9.85;4.10;;;;;;;;;;5120887;27;20077;-65
2023/12/16 12:49:54;;;;;;;5.75;3.38;;;;;;;;;;5121419;27;20070;-67
2023/12/16 12:52:34;;;;;;;9.07;4.10;;;;;;;;;;5116996;27;20061;-64
2023/12/16 12:55:00;;;;;;;7.95;4.03;;;;;;;;;;5099352;27;20444;-65
2023/12/16 12:57:26;;;;;;;6.13;3.85;;;;;;;;;;5101566;27;20130;-65
2023/12/16 12:59:52;;;;;;;8.23;3.80;;;;;;;;;;5102023;27;20391;-65
2023/12/16 13:02:18;;;;;;;8.15;4.25;;;;;;;;;;5120928;27;20075;-66
2023/12/16 13:04:44;;;;;;;10.73;4.22;;;;;;;;;;5121940;27;20085;-66
2023/12/16 13:07:10;;;;;;;5.93;3.50;;;;;;;;;;5120498;27;20496;-66
2023/12/16 13:09:37;;;;;;;7.05;3.30;;;;;;;;;;5084288;27;20051;-66
2023/12/16 13:12:04;;;;;;;7.55;4.20;;;;;;;;;;5119460;27;20138;-66
2023/12/16 13:14:31;;;;;;;5.43;3.22;;;;;;;;;;5100990;27;20039;-66
2023/12/16 13:16:58;;;;;;;8.07;3.45;;;;;;;;;;5120363;27;20734;-66
2023/12/16 13:19:25;;;;;;;7.40;4.30;;;;;;;;;;5119557;27;20046;-65
2023/12/16 13:21:51;;;;;;;8.70;4.13;;;;;;;;;;5119241;27;20553;-66
2023/12/16 13:24:17;;;;;;;11.52;4.75;;;;;;;;;;5100076;27;20910;-66
2023/12/16 13:26:44;;;;;;;7.65;3.85;;;;;;;;;;5119295;27;20035;-66
2023/12/16 13:29:10;;;;;;;8.02;4.40;;;;;;;;;;5120493;27;20091;-67
2023/12/16 13:31:36;;;;;;;6.00;4.13;;;;;;;;;;5120536;27;20470;-66
2023/12/16 13:34:02;;;;;;;6.65;3.60;;;;;;;;;;5121067;27;20043;-66
2023/12/16 13:36:29;;;;;;;10.40;3.42;;;;;;;;;;5118498;27;20035;-65
2023/12/16 13:38:55;;;;;;;4.88;3.33;;;;;;;;;;5119698;27;20072;-66
2023/12/16 13:41:22;;;;;;;5.55;3.40;;;;;;;;;;5119541;27;20064;-66
2023/12/16 13:43:49;;;;;;;6.38;3.60;;;;;;;;;;5100347;27;20095;-65
2023/12/16 13:46:15;;;;;;;10.15;4.00;;;;;;;;;;5120429;27;20167;-66
2023/12/16 13:48:41;;;;;;;8.20;3.42;;;;;;;;;;5122583;28;20474;-65
2023/12/16 13:51:07;;;;;;;6.05;2.90;;;;;;;;;;5120250;28;20455;-65
2023/12/16 13:53:33;;;;;;;6.75;3.60;;;;;;;;;;5122182;27;20328;-66
2023/12/16 13:55:59;;;;;;;7.35;3.90;;;;;;;;;;5114159;28;20061;-66
2023/12/16 13:58:26;;;;;;;4.65;3.17;;;;;;;;;;5121094;28;20043;-66
2023/12/16 14:00:52;;;;;;;8.88;3.70;;;;;;;;;;5121620;28;20511;-66
2023/12/16 14:03:18;;;;;;;8.27;3.33;;;;;;;;;;5117934;28;20398;-65
2023/12/16 14:05:44;;;;;;;5.95;3.10;;;;;;;;;;5120047;28;20114;-66
2023/12/16 14:08:11;;;;;;;9.48;2.97;;;;;;;;;;5119687;28;20047;-66
2023/12/16 14:10:37;;;;;;;5.43;3.53;;;;;;;;;;5098529;28;20502;-66
2023/12/16 14:13:03;;;;;;;10.57;3.38;;;;;;;;;;5097625;28;20152;-66
2023/12/16 14:15:30;;;;;;;6.05;3.05;;;;;;;;;;5100397;28;20046;-66
2023/12/16 14:17:56;;;;;;;6.22;3.22;;;;;;;;;;5100715;28;20055;-66
2023/12/16 14:20:22;;;;;;;6.65;3.63;;;;;;;;;;5097411;28;20544;-66
2023/12/16 14:22:49;;;;;;;6.78;3.42;;;;;;;;;;5099634;28;20055;-66
2023/12/16 14:25:16;;;;;;;8.13;3.30;;;;;;;;;;5098569;28;20777;-66
2023/12/16 14:27:42;;;;;;;4.93;3.00;;;;;;;;;;5097968;28;20489;-66
2023/12/16 14:30:08;;;;;;;6.05;3.10;;;;;;;;;;5098790;28;20032;-67
2023/12/16 14:32:34;;;;;;;8.68;3.42;;;;;;;;;;5100631;28;20040;-66
2023/12/16 14:35:02;;;;;;;8.05;3.05;;;;;;;;;;5096642;28;20462;-66